Time;durP1;ratioP1;P1;durP2;ratioP2;P2;SDS_P1;SDS_P2;PMS_P1;PMS_P2;Temp;Humidity;BMP_temperature;BMP_pressure;BME280_temperature;BME280_humidity;BME280_pressure;Samples;Min_cycle;Max_cycle;Signal;HPM_P1;HPM_P2
2022/07/29 00:01:34;;;;;;;17.80;16.70;;;20.70;99.90;;;;;;5050290;28;20452;-72
2022/07/29 00:04:02;;;;;;;18.33;17.37;;;20.80;99.90;;;;;;5049906;28;20490;-72
2022/07/29 00:06:29;;;;;;;19.60;18.60;;;20.80;99.90;;;;;;5053428;28;20482;-74
2022/07/29 00:08:56;;;;;;;19.20;18.20;;;20.70;99.90;;;;;;5054044;28;20456;-75
2022/07/29 00:11:22;;;;;;;18.43;17.40;;;20.70;99.90;;;;;;5054161;28;20448;-74
2022/07/29 00:13:49;;;;;;;17.77;16.77;;;20.70;99.90;;;;;;5053614;28;20794;-74
2022/07/29 00:16:16;;;;;;;19.73;18.70;;;20.70;99.90;;;;;;5053547;28;20479;-74
2022/07/29 00:18:43;;;;;;;20.40;19.10;;;20.70;99.90;;;;;;5053539;28;20452;-74
2022/07/29 00:21:11;;;;;;;20.33;18.93;;;20.80;99.90;;;;;;5053556;28;20960;-75
2022/07/29 00:23:37;;;;;;;18.87;17.97;;;20.80;99.90;;;;;;5053561;28;20447;-75
2022/07/29 00:26:04;;;;;;;19.60;18.30;;;20.80;99.90;;;;;;5053418;28;20463;-75
2022/07/29 00:28:31;;;;;;;20.33;18.87;;;20.80;99.90;;;;;;5053437;28;20455;-74
2022/07/29 00:30:57;;;;;;;19.97;18.87;;;20.70;99.90;;;;;;5053526;28;20454;-74
2022/07/29 00:33:24;;;;;;;20.00;18.90;;;20.70;99.90;;;;;;5053200;28;20452;-75
2022/07/29 00:35:50;;;;;;;20.50;19.40;;;20.70;99.90;;;;;;5053222;28;20456;-75
2022/07/29 00:38:19;;;;;;;20.30;19.00;;;20.60;99.90;;;;;;5053084;28;20566;-74
2022/07/29 00:40:47;;;;;;;21.90;20.50;;;20.50;99.90;;;;;;5053134;28;20241;-73
2022/07/29 00:43:15;;;;;;;20.83;19.30;;;20.50;99.90;;;;;;5053194;28;20452;-75
2022/07/29 00:45:42;;;;;;;19.87;18.87;;;20.50;99.90;;;;;;5053143;28;20452;-72
2022/07/29 00:48:08;;;;;;;22.83;21.27;;;20.50;99.90;;;;;;5053339;28;20440;-73
2022/07/29 00:50:36;;;;;;;22.47;21.07;;;20.40;99.90;;;;;;5052986;28;20517;-71
2022/07/29 00:53:04;;;;;;;22.73;21.20;;;20.30;99.90;;;;;;5052936;28;20509;-72
2022/07/29 00:55:32;;;;;;;21.33;19.93;;;20.40;99.90;;;;;;5052925;28;20451;-72
2022/07/29 00:58:00;;;;;;;22.30;21.00;;;20.30;99.90;;;;;;5052528;28;20484;-72
2022/07/29 01:00:29;;;;;;;23.17;21.50;;;20.30;99.90;;;;;;5052946;28;20792;-72
2022/07/29 01:02:56;;;;;;;21.00;19.63;;;20.30;99.90;;;;;;5052890;28;20444;-72
2022/07/29 01:05:24;;;;;;;21.40;20.20;;;20.30;99.90;;;;;;5052586;28;20487;-72
2022/07/29 01:07:54;;;;;;;22.80;21.40;;;20.30;99.90;;;;;;5052652;28;20451;-71
2022/07/29 01:10:22;;;;;;;22.87;21.37;;;20.40;99.90;;;;;;5052306;28;20817;-72
2022/07/29 01:12:52;;;;;;;23.83;22.13;;;20.30;99.90;;;;;;5052944;28;20452;-72
2022/07/29 01:15:19;;;;;;;23.20;21.70;;;20.20;99.90;;;;;;5052022;28;20499;-72
2022/07/29 01:17:50;;;;;;;22.97;21.50;;;20.20;99.90;;;;;;5052370;28;20494;-72
2022/07/29 01:20:24;;;;;;;22.43;20.93;;;20.10;99.90;;;;;;5052695;28;20429;-72
2022/07/29 01:23:16;;;;;;;23.70;22.10;;;20.10;99.90;;;;;;5051996;28;20464;-72
2022/07/29 01:26:04;;;;;;;24.13;22.53;;;20.10;99.90;;;;;;5052657;28;20864;-72
2022/07/29 01:28:50;;;;;;;22.77;21.20;;;20.10;99.90;;;;;;5052347;28;20472;-72
2022/07/29 01:31:20;;;;;;;22.37;20.70;;;20.20;99.90;;;;;;5052177;28;20788;-73
2022/07/29 01:33:53;;;;;;;21.03;19.83;;;20.30;99.90;;;;;;5052219;28;20488;-73
2022/07/29 01:36:26;;;;;;;21.43;20.23;;;20.30;99.90;;;;;;5051794;28;20948;-73
2022/07/29 01:39:03;;;;;;;22.87;20.80;;;20.30;99.90;;;;;;5052784;28;20420;-73
2022/07/29 01:41:34;;;;;;;20.30;19.10;;;20.30;99.90;;;;;;5052075;28;20440;-73
2022/07/29 01:44:10;;;;;;;20.80;19.40;;;20.30;99.90;;;;;;5052074;28;20458;-73
2022/07/29 01:46:42;;;;;;;21.37;20.07;;;20.30;99.90;;;;;;5052042;28;20440;-73
2022/07/29 01:49:13;;;;;;;21.93;20.73;;;20.20;99.90;;;;;;5052070;28;20449;-73
2022/07/29 01:51:46;;;;;;;23.70;21.70;;;20.20;99.90;;;;;;5052041;28;20949;-73
2022/07/29 01:54:18;;;;;;;22.83;21.60;;;20.10;99.90;;;;;;5051998;28;20832;-73
2022/07/29 01:56:48;;;;;;;21.97;20.57;;;20.00;99.90;;;;;;5051686;28;20495;-72
2022/07/29 01:59:18;;;;;;;21.90;20.33;;;19.90;99.90;;;;;;5051650;28;20942;-72
2022/07/29 02:01:47;;;;;;;23.27;21.80;;;19.90;99.90;;;;;;5051769;28;20448;-73
2022/07/29 02:04:17;;;;;;;22.00;20.70;;;19.80;99.90;;;;;;5051818;28;20460;-73
2022/07/29 02:06:46;;;;;;;22.43;21.13;;;19.90;99.90;;;;;;5051506;28;20483;-72
2022/07/29 02:09:16;;;;;;;22.03;20.17;;;19.90;99.90;;;;;;5051911;28;20783;-73
2022/07/29 02:11:50;;;;;;;22.60;21.10;;;19.90;99.90;;;;;;5051718;28;21011;-72
2022/07/29 02:14:19;;;;;;;22.60;21.20;;;19.90;99.90;;;;;;5051265;28;20479;-72
2022/07/29 02:16:47;;;;;;;21.60;20.10;;;19.80;99.90;;;;;;5051406;28;20484;-72
2022/07/29 02:19:18;;;;;;;24.10;21.77;;;19.70;99.90;;;;;;5051280;28;20459;-73
2022/07/29 02:21:46;;;;;;;22.30;20.50;;;19.60;99.90;;;;;;5053770;28;20466;-72
2022/07/29 02:24:14;;;;;;;22.43;21.13;;;19.50;99.90;;;;;;5060743;28;20941;-72
2022/07/29 02:26:43;;;;;;;22.50;21.10;;;19.50;99.90;;;;;;5060049;28;20441;-72
2022/07/29 02:29:11;;;;;;;20.03;18.80;;;19.60;99.90;;;;;;5058559;28;20494;-73
2022/07/29 02:31:43;;;;;;;21.87;20.47;;;19.60;99.90;;;;;;5059893;28;20443;-72
2022/07/29 02:34:12;;;;;;;20.77;19.50;;;19.70;99.90;;;;;;5060724;28;21053;-72
2022/07/29 02:36:40;;;;;;;21.53;20.30;;;19.70;99.90;;;;;;5059354;28;20926;-72
2022/07/29 02:39:09;;;;;;;19.97;18.77;;;19.60;99.90;;;;;;5058306;28;20947;-71
2022/07/29 02:41:42;;;;;;;22.13;20.43;;;19.60;99.90;;;;;;5059053;28;20542;-72
2022/07/29 02:44:12;;;;;;;20.87;19.37;;;19.50;99.90;;;;;;5061710;28;20942;-73
2022/07/29 02:46:48;;;;;;;20.33;19.23;;;19.60;99.90;;;;;;5059380;28;20440;-72
2022/07/29 02:49:19;;;;;;;20.17;18.90;;;19.60;99.90;;;;;;5059445;28;20802;-73
2022/07/29 02:51:50;;;;;;;20.60;19.40;;;19.50;99.90;;;;;;5050336;28;20510;-72
2022/07/29 02:54:24;;;;;;;18.67;17.77;;;19.50;99.90;;;;;;5050530;28;20428;-73
2022/07/29 02:56:55;;;;;;;20.57;19.37;;;19.50;99.90;;;;;;5060198;28;20439;-72
2022/07/29 02:59:26;;;;;;;23.00;21.57;;;19.50;99.90;;;;;;5059058;28;20448;-72
2022/07/29 03:01:56;;;;;;;21.17;19.87;;;19.50;99.90;;;;;;5059959;28;20451;-73
2022/07/29 03:04:25;;;;;;;20.83;19.73;;;19.40;99.90;;;;;;5059520;28;20444;-72
2022/07/29 03:06:54;;;;;;;22.07;20.73;;;19.30;99.90;;;;;;5059481;28;20506;-72
2022/07/29 03:09:21;;;;;;;21.00;19.80;;;19.20;99.90;;;;;;5061589;28;20443;-72
2022/07/29 03:11:48;;;;;;;21.30;20.00;;;19.20;99.90;;;;;;5060173;28;20546;-72
2022/07/29 03:14:16;;;;;;;22.67;21.13;;;19.00;99.90;;;;;;5058550;28;20451;-73
2022/07/29 03:16:43;;;;;;;21.80;20.40;;;18.90;99.90;;;;;;5056596;28;20444;-73
2022/07/29 03:19:11;;;;;;;21.10;19.80;;;18.90;99.90;;;;;;5050327;28;20488;-74
2022/07/29 03:21:38;;;;;;;23.20;21.90;;;18.80;99.90;;;;;;5050158;28;20475;-74
2022/07/29 03:24:05;;;;;;;22.40;20.90;;;18.70;99.90;;;;;;5050241;28;20953;-73
2022/07/29 03:26:32;;;;;;;21.77;20.37;;;18.70;99.90;;;;;;5050355;28;20460;-72
2022/07/29 03:28:58;;;;;;;21.10;20.00;;;18.70;99.90;;;;;;5050380;28;20467;-73
2022/07/29 03:31:25;;;;;;;22.57;21.07;;;18.70;99.90;;;;;;5050605;28;20452;-73
2022/07/29 03:33:52;;;;;;;22.40;21.00;;;18.70;99.90;;;;;;5050121;28;20459;-72
2022/07/29 03:36:20;;;;;;;21.70;20.50;;;18.70;99.90;;;;;;5050389;28;20448;-72
2022/07/29 03:38:48;;;;;;;21.33;20.13;;;18.60;99.90;;;;;;5051392;28;20491;-73
2022/07/29 03:41:17;;;;;;;21.63;20.13;;;18.70;99.90;;;;;;5054419;28;20444;-73
2022/07/29 03:43:44;;;;;;;22.93;21.53;;;18.60;99.90;;;;;;5054457;28;20610;-73
2022/07/29 03:46:14;;;;;;;23.37;21.77;;;18.60;99.90;;;;;;5054678;28;20834;-73
2022/07/29 03:48:46;;;;;;;21.93;20.53;;;18.70;99.90;;;;;;5054393;28;20942;-73
2022/07/29 03:51:13;;;;;;;23.63;21.93;;;18.80;99.90;;;;;;5054140;28;20475;-73
2022/07/29 03:53:42;;;;;;;21.80;20.60;;;18.80;99.90;;;;;;5054146;28;20458;-74
2022/07/29 03:56:10;;;;;;;23.03;21.53;;;18.80;99.90;;;;;;5054208;28;20455;-73
2022/07/29 03:58:38;;;;;;;22.23;21.00;;;18.80;99.90;;;;;;5053472;28;20993;-74
2022/07/29 04:01:05;;;;;;;23.70;22.00;;;18.80;99.90;;;;;;5053910;28;20873;-73
2022/07/29 04:03:32;;;;;;;24.00;22.37;;;18.80;99.90;;;;;;5054034;28;20456;-73
2022/07/29 04:06:00;;;;;;;24.83;23.17;;;18.80;99.90;;;;;;5053825;28;20475;-73
2022/07/29 04:08:27;;;;;;;22.77;21.57;;;18.90;99.90;;;;;;5053631;28;20451;-73
2022/07/29 04:10:55;;;;;;;24.50;22.63;;;18.90;99.90;;;;;;5054217;28;20456;-74
2022/07/29 04:13:22;;;;;;;24.27;22.60;;;19.00;99.90;;;;;;5053926;28;20486;-73
2022/07/29 04:15:49;;;;;;;22.87;20.97;;;19.10;99.90;;;;;;5053228;28;20467;-72
2022/07/29 04:18:15;;;;;;;23.87;21.60;;;19.20;99.90;;;;;;5053637;28;20491;-73
2022/07/29 04:20:42;;;;;;;23.93;21.83;;;19.40;99.90;;;;;;5053965;28;20810;-73
2022/07/29 04:23:09;;;;;;;22.57;21.10;;;19.50;99.90;;;;;;5053754;28;20464;-72
2022/07/29 04:25:38;;;;;;;24.33;22.27;;;19.60;99.90;;;;;;5053626;28;20460;-72
2022/07/29 04:28:07;;;;;;;22.63;21.00;;;19.60;99.90;;;;;;5053508;28;20961;-73
2022/07/29 04:30:34;;;;;;;23.97;22.30;;;19.60;99.90;;;;;;5054004;28;20444;-74
2022/07/29 04:33:02;;;;;;;22.33;21.13;;;19.60;99.90;;;;;;5053617;28;20455;-74
2022/07/29 04:35:29;;;;;;;22.93;21.00;;;19.70;99.90;;;;;;5053818;28;20451;-74
2022/07/29 04:37:56;;;;;;;22.47;21.27;;;19.60;99.90;;;;;;5053776;28;20499;-74
2022/07/29 04:40:23;;;;;;;20.87;19.83;;;19.60;99.90;;;;;;5053614;28;20458;-74
2022/07/29 04:42:49;;;;;;;21.30;20.13;;;19.60;99.90;;;;;;5053437;28;20459;-74
2022/07/29 04:45:18;;;;;;;20.57;19.47;;;19.70;99.90;;;;;;5053482;28;20452;-74
2022/07/29 04:47:44;;;;;;;21.77;20.47;;;19.80;99.90;;;;;;5053204;28;20448;-74
2022/07/29 04:50:11;;;;;;;19.97;18.97;;;20.10;99.90;;;;;;5052940;28;20444;-73
2022/07/29 04:52:38;;;;;;;19.80;18.70;;;20.40;99.90;;;;;;5053406;28;20459;-73
2022/07/29 04:55:06;;;;;;;20.50;19.47;;;20.80;99.90;;;;;;5053301;28;20448;-74
2022/07/29 04:57:34;;;;;;;20.40;18.87;;;21.20;99.90;;;;;;5052950;28;20452;-72
2022/07/29 05:00:00;;;;;;;20.23;19.10;;;21.40;99.90;;;;;;5053162;28;20450;-73
2022/07/29 05:02:28;;;;;;;20.53;19.13;;;21.40;99.90;;;;;;5052894;28;20444;-73
2022/07/29 05:04:55;;;;;;;20.00;18.70;;;21.40;99.90;;;;;;5053115;28;20849;-73
2022/07/29 05:07:22;;;;;;;20.33;19.03;;;21.70;99.90;;;;;;5052779;28;20906;-73
2022/07/29 05:09:48;;;;;;;20.00;18.80;;;21.90;99.90;;;;;;5052896;28;20440;-74
2022/07/29 05:12:15;;;;;;;20.00;18.80;;;22.20;99.90;;;;;;5052490;28;20966;-74
2022/07/29 05:14:42;;;;;;;20.20;19.00;;;22.50;99.90;;;;;;5052945;28;20460;-75
2022/07/29 05:17:08;;;;;;;22.63;21.13;;;22.70;99.90;;;;;;5053034;28;20448;-74
2022/07/29 05:19:37;;;;;;;22.30;20.90;;;22.70;99.90;;;;;;5052491;28;20487;-74
2022/07/29 05:22:03;;;;;;;23.10;21.70;;;22.60;99.90;;;;;;5052581;28;20494;-73
2022/07/29 05:24:30;;;;;;;21.40;20.20;;;22.60;99.90;;;;;;5052997;28;20452;-74
2022/07/29 05:26:57;;;;;;;19.93;18.83;;;22.80;99.90;;;;;;5052812;28;20802;-74
2022/07/29 05:29:23;;;;;;;20.77;19.47;;;22.90;99.90;;;;;;5052379;28;20451;-73
2022/07/29 05:31:51;;;;;;;18.90;17.93;;;22.90;99.90;;;;;;5052612;28;20444;-74
2022/07/29 05:34:18;;;;;;;19.07;18.07;;;22.70;99.90;;;;;;5052784;28;20456;-74
2022/07/29 05:36:47;;;;;;;17.23;16.13;;;22.80;99.90;;;;;;5052988;28;20452;-74
2022/07/29 05:39:13;;;;;;;18.00;17.03;;;23.00;99.90;;;;;;5052435;28;20490;-74
2022/07/29 05:41:41;;;;;;;18.10;17.20;;;23.10;99.90;;;;;;5052718;28;20440;-74
2022/07/29 05:44:07;;;;;;;17.83;17.00;;;23.30;99.90;;;;;;5052390;28;20447;-75
2022/07/29 05:46:34;;;;;;;17.60;16.60;;;23.30;99.90;;;;;;5052166;28;20448;-73
2022/07/29 05:49:02;;;;;;;16.43;15.60;;;23.60;99.90;;;;;;5051979;28;20452;-73
2022/07/29 05:51:29;;;;;;;17.33;16.10;;;23.60;99.90;;;;;;5052351;28;20456;-72
2022/07/29 05:53:57;;;;;;;16.53;15.67;;;23.60;99.90;;;;;;5052399;28;20550;-72
2022/07/29 05:56:24;;;;;;;16.87;15.97;;;23.90;99.90;;;;;;5052197;28;20452;-73
2022/07/29 05:58:51;;;;;;;15.63;14.90;;;23.90;99.90;;;;;;5051764;28;20476;-72
2022/07/29 06:01:18;;;;;;;16.33;15.53;;;24.00;99.90;;;;;;5052024;28;20960;-73
2022/07/29 06:03:45;;;;;;;17.60;16.70;;;23.70;99.90;;;;;;5051828;28;20941;-73
2022/07/29 06:06:12;;;;;;;15.90;15.17;;;23.50;99.90;;;;;;5051816;28;20483;-72
2022/07/29 06:08:40;;;;;;;17.10;16.20;;;23.80;99.90;;;;;;5051705;28;20474;-72
2022/07/29 06:11:08;;;;;;;16.43;15.63;;;23.90;99.90;;;;;;5051809;28;20547;-72
2022/07/29 06:13:35;;;;;;;16.40;15.43;;;24.00;99.90;;;;;;5051921;28;20491;-73
2022/07/29 06:16:02;;;;;;;15.57;14.87;;;24.40;99.90;;;;;;5051653;28;20482;-73
2022/07/29 06:18:28;;;;;;;15.70;14.80;;;24.70;99.90;;;;;;5051642;28;20487;-74
2022/07/29 06:20:58;;;;;;;15.60;14.90;;;25.00;99.90;;;;;;5051664;28;20448;-73
2022/07/29 06:26:41;;;;;;;15.70;14.80;;;25.30;99.90;;;;;;4994530;28;20501;-71
2022/07/29 06:29:08;;;;;;;15.23;14.43;;;25.70;99.90;;;;;;5050764;28;20444;-72
2022/07/29 06:31:35;;;;;;;14.60;13.80;;;26.00;99.90;;;;;;5050662;28;20864;-72
2022/07/29 06:34:01;;;;;;;16.17;15.13;;;26.10;99.90;;;;;;5050368;28;20455;-72
2022/07/29 06:36:28;;;;;;;14.77;13.87;;;26.00;99.90;;;;;;5050460;28;20459;-72
2022/07/29 06:38:55;;;;;;;15.40;14.63;;;26.10;99.90;;;;;;5050467;28;20480;-72
2022/07/29 06:41:22;;;;;;;15.53;14.63;;;25.90;99.90;;;;;;5050521;28;20459;-72
2022/07/29 06:43:51;;;;;;;16.80;16.00;;;26.00;99.90;;;;;;5050294;28;20455;-72
2022/07/29 06:46:18;;;;;;;16.03;15.33;;;26.50;99.90;;;;;;5050143;28;20452;-72
2022/07/29 06:48:45;;;;;;;16.13;15.23;;;27.00;99.90;;;;;;5050313;28;20456;-72
2022/07/29 06:51:13;;;;;;;14.70;14.03;;;27.10;99.90;;;;;;5050512;28;20488;-72
2022/07/29 06:53:41;;;;;;;15.23;14.53;;;26.90;99.90;;;;;;5050249;28;20459;-72
2022/07/29 06:56:08;;;;;;;15.33;14.63;;;26.80;99.90;;;;;;5050139;28;20456;-72
2022/07/29 06:58:36;;;;;;;15.57;14.63;;;26.70;99.90;;;;;;5050079;28;21086;-72
2022/07/29 07:01:06;;;;;;;17.57;16.27;;;26.20;99.90;;;;;;5050046;28;20451;-71
2022/07/29 07:03:33;;;;;;;15.50;14.80;;;26.10;99.90;;;;;;5049880;28;20450;-71
2022/07/29 07:06:00;;;;;;;14.93;14.23;;;26.20;99.90;;;;;;5049870;28;20479;-71
2022/07/29 07:08:27;;;;;;;15.43;14.70;;;26.10;99.90;;;;;;5049877;28;20451;-71
2022/07/29 07:10:54;;;;;;;15.40;14.43;;;26.10;99.90;;;;;;5049951;28;20494;-71
2022/07/29 07:13:21;;;;;;;15.40;14.60;;;26.70;99.90;;;;;;5049403;28;20602;-72
2022/07/29 07:15:48;;;;;;;14.67;14.00;;;27.20;99.90;;;;;;5049913;28;20455;-71
2022/07/29 07:18:17;;;;;;;15.63;14.93;;;27.50;99.90;;;;;;5049982;28;20508;-71
2022/07/29 07:20:44;;;;;;;15.23;14.50;;;27.70;99.90;;;;;;5050031;28;20463;-71
2022/07/29 07:23:11;;;;;;;15.10;14.30;;;27.80;99.90;;;;;;5049698;28;20491;-72
2022/07/29 07:25:38;;;;;;;16.07;15.37;;;27.80;99.90;;;;;;5049887;28;20456;-72
2022/07/29 07:28:05;;;;;;;17.93;16.83;;;28.10;99.40;;;;;;5049750;28;20448;-71
2022/07/29 07:30:31;;;;;;;15.80;15.00;;;28.50;98.70;;;;;;5049522;28;20448;-72
2022/07/29 07:32:58;;;;;;;15.53;14.83;;;28.30;98.80;;;;;;5049678;28;20444;-71
2022/07/29 07:35:27;;;;;;;14.80;14.10;;;27.60;99.90;;;;;;5049852;28;20922;-72
2022/07/29 07:37:54;;;;;;;16.33;15.33;;;27.70;99.90;;;;;;5049649;28;20459;-72
2022/07/29 07:40:20;;;;;;;15.80;14.97;;;27.30;99.90;;;;;;5049577;28;20495;-72
2022/07/29 07:42:47;;;;;;;17.07;16.27;;;27.00;99.90;;;;;;5049499;28;20455;-72
2022/07/29 07:45:14;;;;;;;16.50;15.50;;;27.20;99.90;;;;;;5049771;28;20471;-72
2022/07/29 07:47:41;;;;;;;14.93;14.10;;;27.30;99.90;;;;;;5049743;28;20448;-72
2022/07/29 07:50:10;;;;;;;15.07;14.47;;;26.90;99.90;;;;;;5049607;28;20891;-72
2022/07/29 07:52:47;;;;;;;15.50;14.63;;;26.90;99.90;;;;;;5047788;28;20459;-73
2022/07/29 07:55:14;;;;;;;15.60;14.90;;;27.70;99.90;;;;;;5049750;28;20448;-72
2022/07/29 07:57:41;;;;;;;16.53;15.83;;;28.20;99.90;;;;;;5049987;28;20514;-72
2022/07/29 08:00:08;;;;;;;16.47;15.60;;;28.40;99.20;;;;;;5049884;28;20487;-72
2022/07/29 08:02:35;;;;;;;14.60;14.00;;;28.60;98.90;;;;;;5049794;28;20488;-73
2022/07/29 08:05:02;;;;;;;14.63;13.93;;;28.40;98.80;;;;;;5049461;28;20491;-73
2022/07/29 08:07:29;;;;;;;16.23;15.23;;;28.50;98.80;;;;;;5049840;28;20934;-71
2022/07/29 08:09:57;;;;;;;16.50;15.70;;;29.00;97.80;;;;;;5049941;28;20455;-71
2022/07/29 08:12:23;;;;;;;15.70;15.10;;;29.70;96.30;;;;;;5049736;28;20458;-72
2022/07/29 08:14:50;;;;;;;16.57;15.77;;;30.10;95.20;;;;;;5049491;28;20946;-71
2022/07/29 08:17:17;;;;;;;16.37;15.57;;;30.40;94.60;;;;;;5049376;28;20444;-72
2022/07/29 08:19:43;;;;;;;15.90;15.30;;;31.00;92.90;;;;;;5049385;28;20494;-72
2022/07/29 08:22:10;;;;;;;16.10;15.30;;;31.20;92.40;;;;;;5049553;28;21206;-72
2022/07/29 08:24:52;;;;;;;15.77;15.17;;;31.50;92.40;;;;;;5049388;28;20484;-72
2022/07/29 08:27:21;;;;;;;16.80;16.10;;;31.60;92.10;;;;;;5052771;28;20452;-72
2022/07/29 08:29:48;;;;;;;16.83;16.00;;;32.20;90.50;;;;;;5053239;28;20475;-72
2022/07/29 08:32:14;;;;;;;16.50;15.73;;;32.70;88.50;;;;;;5052962;28;20448;-72
2022/07/29 08:34:42;;;;;;;16.63;15.93;;;32.70;85.90;;;;;;5053250;28;20448;-73
2022/07/29 08:37:08;;;;;;;16.97;16.07;;;32.50;87.30;;;;;;5053057;28;20546;-72
2022/07/29 08:39:35;;;;;;;15.90;15.10;;;32.50;86.10;;;;;;5052882;28;20491;-72
2022/07/29 08:42:02;;;;;;;15.90;15.00;;;32.40;86.00;;;;;;5052755;28;20737;-71
2022/07/29 08:44:30;;;;;;;16.60;15.80;;;32.90;85.30;;;;;;5052683;28;20950;-72
2022/07/29 08:46:57;;;;;;;17.07;16.33;;;33.10;83.70;;;;;;5052752;28;20467;-72
2022/07/29 08:49:23;;;;;;;17.30;16.43;;;33.40;83.40;;;;;;5052876;28;20447;-72
2022/07/29 08:51:51;;;;;;;17.33;16.43;;;33.30;83.60;;;;;;5052585;28;20795;-72
2022/07/29 08:54:19;;;;;;;18.60;17.70;;;33.50;81.60;;;;;;5050630;28;20563;-72
2022/07/29 08:57:11;;;;;;;18.33;17.50;;;32.50;83.40;;;;;;5052675;28;21018;-72
2022/07/29 08:59:43;;;;;;;17.17;16.37;;;32.90;82.40;;;;;;5050758;28;20956;-73
2022/07/29 09:02:16;;;;;;;17.07;16.27;;;33.40;80.40;;;;;;5052600;28;20875;-73
2022/07/29 09:04:42;;;;;;;17.80;17.10;;;33.90;77.80;;;;;;5052419;28;20455;-72
2022/07/29 09:07:10;;;;;;;17.63;16.77;;;34.00;76.90;;;;;;5052889;28;20452;-73
2022/07/29 09:09:39;;;;;;;17.50;16.50;;;35.10;73.00;;;;;;5052453;28;20471;-73
2022/07/29 09:12:07;;;;;;;17.03;16.10;;;36.00;69.70;;;;;;5056436;28;20455;-72
2022/07/29 09:14:35;;;;;;;18.23;17.07;;;35.80;69.20;;;;;;5066313;28;20454;-72
2022/07/29 09:17:03;;;;;;;18.23;17.43;;;35.90;68.90;;;;;;5055435;28;20440;-72
2022/07/29 09:19:34;;;;;;;17.60;16.80;;;36.50;66.10;;;;;;5054056;28;20487;-72
2022/07/29 09:22:04;;;;;;;16.90;15.90;;;36.40;65.10;;;;;;5072157;28;20880;-72
2022/07/29 09:24:41;;;;;;;17.57;16.70;;;36.40;65.40;;;;;;5071477;28;20482;-72
2022/07/29 09:27:11;;;;;;;18.03;16.87;;;36.30;62.70;;;;;;5072288;28;20447;-72
2022/07/29 09:29:38;;;;;;;17.10;16.07;;;36.30;63.90;;;;;;5059819;28;20459;-72
2022/07/29 09:32:10;;;;;;;18.00;17.27;;;36.90;62.00;;;;;;5057176;28;20460;-73
2022/07/29 09:34:37;;;;;;;19.00;18.00;;;37.50;59.40;;;;;;5051635;28;21021;-73
2022/07/29 09:37:05;;;;;;;18.50;17.80;;;38.20;56.90;;;;;;5051596;28;20463;-73
2022/07/29 09:39:34;;;;;;;18.20;17.30;;;38.70;55.00;;;;;;5051785;28;20935;-73
2022/07/29 09:42:02;;;;;;;18.50;17.80;;;38.00;55.40;;;;;;5051781;28;20825;-73
2022/07/29 09:44:42;;;;;;;19.80;18.53;;;38.00;55.90;;;;;;5051830;28;20822;-73
2022/07/29 09:47:10;;;;;;;19.60;18.40;;;37.70;56.30;;;;;;5070757;28;20575;-73
2022/07/29 09:49:52;;;;;;;18.47;17.57;;;37.50;56.60;;;;;;5068908;28;20439;-73
2022/07/29 09:52:19;;;;;;;19.27;17.83;;;37.30;55.20;;;;;;5051745;28;21112;-73
2022/07/29 09:54:46;;;;;;;17.63;16.87;;;37.50;54.60;;;;;;5051821;28;20452;-73
2022/07/29 09:57:26;;;;;;;18.17;17.37;;;37.80;53.50;;;;;;5051733;28;20483;-72
2022/07/29 10:00:01;;;;;;;18.77;17.63;;;38.50;52.20;;;;;;5051640;28;20488;-73
2022/07/29 10:02:34;;;;;;;17.33;16.53;;;38.50;51.10;;;;;;5051402;28;20451;-73
2022/07/29 10:05:01;;;;;;;19.17;18.37;;;39.10;51.00;;;;;;5051205;28;20803;-73
2022/07/29 10:07:45;;;;;;;20.90;19.70;;;39.70;52.10;;;;;;5051334;28;20843;-73
2022/07/29 10:10:12;;;;;;;19.70;18.60;;;39.20;51.80;;;;;;5051517;28;20476;-73
2022/07/29 10:12:50;;;;;;;18.43;17.60;;;36.90;52.10;;;;;;5051533;28;20456;-73
2022/07/29 10:15:17;;;;;;;18.87;17.97;;;36.20;56.70;;;;;;5050965;28;20907;-73
2022/07/29 10:17:46;;;;;;;18.33;17.40;;;35.50;57.60;;;;;;5051185;28;20452;-73
2022/07/29 10:20:12;;;;;;;18.03;17.20;;;34.80;58.60;;;;;;5051084;28;20487;-73
2022/07/29 10:22:40;;;;;;;17.73;16.73;;;34.30;59.70;;;;;;5051061;28;20467;-73
2022/07/29 10:25:07;;;;;;;18.33;17.43;;;34.00;60.90;;;;;;5050955;28;20459;-73
2022/07/29 10:27:35;;;;;;;18.90;17.87;;;34.00;60.40;;;;;;5050966;28;20976;-74
2022/07/29 10:30:04;;;;;;;18.80;17.80;;;34.80;59.50;;;;;;5050739;28;20451;-73
2022/07/29 10:32:40;;;;;;;18.13;17.13;;;35.30;57.90;;;;;;5051033;28;20531;-73
2022/07/29 10:35:35;;;;;;;19.00;17.97;;;36.20;55.70;;;;;;5051009;28;20447;-73
2022/07/29 10:38:31;;;;;;;19.13;18.30;;;36.30;55.20;;;;;;5050694;28;20452;-72
2022/07/29 10:43:50;;;;;;;17.97;17.17;;;34.70;57.40;;;;;;5048515;28;20431;-73
2022/07/29 10:46:18;;;;;;;16.10;15.40;;;34.20;57.30;;;;;;5051185;28;20452;-72
2022/07/29 10:49:10;;;;;;;17.57;16.77;;;32.80;58.50;;;;;;5050507;28;20514;-72
2022/07/29 10:51:56;;;;;;;17.47;16.63;;;32.10;60.70;;;;;;5049085;28;20483;-72
2022/07/29 10:54:44;;;;;;;19.03;18.13;;;31.50;63.80;;;;;;5050864;28;20498;-75
2022/07/29 10:57:16;;;;;;;33.57;31.77;;;30.90;74.70;;;;;;5051015;28;20999;-73
2022/07/29 10:59:45;;;;;;;42.80;39.93;;;29.80;90.60;;;;;;5050757;28;20487;-74
2022/07/29 11:02:48;;;;;;;47.07;43.53;;;28.10;99.90;;;;;;5051017;28;20451;-72
2022/07/29 11:05:18;;;;;;;55.97;51.47;;;26.30;99.90;;;;;;5050406;28;20490;-72
2022/07/29 11:08:25;;;;;;;54.60;50.43;;;25.00;99.90;;;;;;5050548;28;20451;-72
2022/07/29 11:11:14;;;;;;;60.60;55.87;;;24.10;99.90;;;;;;5050774;28;20452;-72
2022/07/29 11:13:50;;;;;;;59.63;55.33;;;23.40;99.90;;;;;;5050754;28;20454;-72
2022/07/29 11:16:19;;;;;;;51.93;48.93;;;22.60;99.90;;;;;;5050746;28;20447;-71
2022/07/29 11:19:20;;;;;;;53.87;50.70;;;21.70;99.90;;;;;;5050390;28;20452;-71
2022/07/29 11:21:47;;;;;;;54.60;51.00;;;20.90;99.90;;;;;;5050165;28;20464;-73
2022/07/29 11:24:17;;;;;;;51.40;48.30;;;20.60;99.90;;;;;;5050396;28;20456;-71
2022/07/29 11:26:44;;;;;;;52.17;48.47;;;20.50;99.90;;;;;;5050592;28;20456;-72
2022/07/29 11:29:20;;;;;;;55.87;52.20;;;20.30;99.90;;;;;;5050536;28;20459;-72
2022/07/29 11:31:51;;;;;;;50.80;47.63;;;20.20;99.90;;;;;;5050450;28;20444;-73
2022/07/29 11:34:23;;;;;;;47.87;44.60;;;20.10;99.90;;;;;;5050358;28;20444;-72
2022/07/29 11:37:16;;;;;;;49.13;46.10;;;19.50;99.90;;;;;;5050430;28;20448;-73
2022/07/29 11:39:46;;;;;;;49.20;46.40;;;19.10;99.90;;;;;;5050471;28;20447;-73
2022/07/29 11:42:42;;;;;;;48.90;46.03;;;18.70;99.90;;;;;;5050308;28;20474;-73
2022/07/29 11:45:12;;;;;;;50.00;47.10;;;18.40;99.90;;;;;;5050390;28;20451;-73
2022/07/29 11:47:40;;;;;;;46.43;43.73;;;18.20;99.90;;;;;;5050482;28;20818;-73
2022/07/29 11:50:09;;;;;;;53.07;49.77;;;18.10;99.90;;;;;;5050180;28;20447;-73
2022/07/29 11:52:42;;;;;;;46.03;43.30;;;18.10;99.90;;;;;;5050051;28;20452;-73
2022/07/29 11:55:12;;;;;;;43.73;41.43;;;18.10;99.90;;;;;;5050206;28;21011;-74
2022/07/29 11:57:47;;;;;;;42.70;40.20;;;18.40;99.90;;;;;;5050208;28;20452;-73
2022/07/29 12:00:22;;;;;;;40.60;38.17;;;18.50;99.90;;;;;;5051834;28;20514;-72
2022/07/29 12:02:50;;;;;;;44.17;41.50;;;18.40;99.90;;;;;;5053883;28;20963;-72
2022/07/29 12:05:17;;;;;;;42.80;40.27;;;18.40;99.90;;;;;;5055042;28;20483;-72
2022/07/29 12:07:44;;;;;;;43.63;41.10;;;18.40;99.90;;;;;;5073452;28;20439;-72
2022/07/29 12:10:12;;;;;;;43.50;41.00;;;18.50;99.90;;;;;;5073821;28;20439;-74
2022/07/29 12:12:39;;;;;;;42.33;39.97;;;18.60;99.90;;;;;;5074078;28;20475;-74
2022/07/29 12:15:17;;;;;;;42.13;39.93;;;18.80;99.90;;;;;;5073790;28;20960;-74
2022/07/29 12:17:44;;;;;;;38.60;36.60;;;18.80;99.90;;;;;;5073836;28;20457;-75
2022/07/29 12:20:12;;;;;;;35.00;33.30;;;18.90;99.90;;;;;;5073885;28;20510;-75
2022/07/29 12:22:43;;;;;;;28.53;27.03;;;19.10;99.90;;;;;;5073503;28;20833;-75
2022/07/29 12:25:15;;;;;;;24.90;23.40;;;19.40;99.90;;;;;;5073798;28;20957;-75
2022/07/29 12:27:42;;;;;;;21.27;20.10;;;19.70;99.90;;;;;;5073846;28;20475;-75
2022/07/29 12:30:11;;;;;;;19.30;17.97;;;20.00;99.90;;;;;;5073664;28;20502;-75
2022/07/29 12:32:40;;;;;;;15.80;15.00;;;20.20;99.90;;;;;;5073616;28;20482;-75
2022/07/29 12:35:09;;;;;;;17.20;16.40;;;20.30;99.90;;;;;;5073594;28;20820;-76
2022/07/29 12:37:37;;;;;;;17.63;16.70;;;20.70;99.90;;;;;;5073358;28;20455;-76
2022/07/29 12:40:06;;;;;;;15.27;14.60;;;21.00;99.90;;;;;;5073215;28;20478;-76
2022/07/29 12:42:34;;;;;;;16.20;15.40;;;21.30;99.90;;;;;;5073453;28;20462;-78
2022/07/29 12:45:02;;;;;;;17.90;17.10;;;21.40;99.90;;;;;;5073486;28;20542;-78
2022/07/29 12:47:29;;;;;;;17.20;16.40;;;21.20;99.90;;;;;;5073354;28;20486;-77